Terminal Aerodrome Forecast
Issued by NWS Duluth, MN

Home | Current Version | Previous Version | Text Only | Print | Product List | Glossary On
Versions: 1 2 3 4 5 6 7 8 9 10 11 12 13 14 15 16 17 18 19 20 21 22 23 24 25
000
FTUS43 KDLH 300100 AAA
TAFDLH
TAF AMD
KDLH 300148Z 3002/3024 28007KT P6SM VCTS SCT050CB BKN070
     FM300300 33005KT P6SM SCT080
     FM301100 30006KT 5SM BR SCT080
     FM301500 32007KT P6SM SCT050
     FM301900 31011KT P6SM VCTS SCT040CB BKN070=

USA.gov is the U.S. government's official web portal to all federal, state and local government web resources and services.